DW2802 Ogijares ES current weather conditions

sailwx.info

Wind from 067 at 3 knots gusting 13

Air temperature 13.9° C
Dewpoint 6.7° C

Last reported at 2017-Feb-22 21:52 UTC.
Time now 2017-Feb-22 22:14 UTC

Location: N 37°07' W 003°36'.
View on Google Maps.

See reports from other nearby stations

  
Tides and Currents Weather Stations Pressure Air Temp Water Temp Dewpoint Dewpoint Depression Visibility Wind Speed Wind Dir Waves Ship Positions
date/time (UTC)wind fromknots sea level pressurealtimeterstation pressurevisibilityair tempwater tempwave heightnotes
2017-Feb-22 21:52 067 3 gusting 13 13.9
2017-Feb-22 21:37 082 7 gusting 15 14.4
2017-Feb-22 21:22 067 9 gusting 21 13.3
2017-Feb-22 21:07 340 5 gusting 8 12.2
2017-Feb-22 20:52 080 2 gusting 8 12.2
2017-Feb-22 20:37 077 3 gusting 13 13.3
2017-Feb-22 20:22 143 13 gusting 26 16.1
2017-Feb-22 20:07 146 11 gusting 20 16.7
2017-Feb-22 19:52 050 6 gusting 12 15.6
2017-Feb-22 19:37 119 0 gusting 5 15.6
2017-Feb-22 19:22 161 4 gusting 6 15.6
2017-Feb-22 19:07 163 15.6
2017-Feb-22 18:52 160 1 gusting 5 15.6
2017-Feb-22 18:37 154 15.0
2017-Feb-22 18:22 154 15.6
2017-Feb-22 18:07 063 16.1
2017-Feb-22 17:52 062 16.7
2017-Feb-22 17:37 062 17.2
2017-Feb-22 17:22 062 17.8
2017-Feb-22 17:07 062 17.8
2017-Feb-22 16:52 062 18.3
2017-Feb-22 16:37 062 18.3
2017-Feb-22 16:22 240 0 gusting 4 17.8
2017-Feb-22 16:07 233 17.8
2017-Feb-22 15:52 233 17.8
2017-Feb-22 15:37 245 0 gusting 5 17.8
2017-Feb-22 15:22 337 17.8
2017-Feb-22 15:07 339 17.8
2017-Feb-22 14:52 339 17.8
2017-Feb-22 14:37 343 17.8
2017-Feb-22 14:22 343 17.8
2017-Feb-22 14:06 346 17.8
2017-Feb-22 13:51 346 17.8
2017-Feb-22 13:36 305 17.2
2017-Feb-22 13:21 293 1 gusting 6 17.2
2017-Feb-22 13:06 266 16.7
2017-Feb-22 12:52 264 3 gusting 6 16.1
2017-Feb-22 12:36 266 16.7
2017-Feb-22 12:21 265 0 gusting 5 16.7
2017-Feb-22 12:06 264 16.1
2017-Feb-22 11:51 264 15.0
2017-Feb-22 11:36 245 14.4
2017-Feb-22 11:21 245 0 gusting 3 13.9
2017-Feb-22 11:06 244 1 gusting 4 13.3
2017-Feb-22 10:51 233 0 gusting 4 13.3
2017-Feb-22 10:36 229 0 gusting 3 12.8
2017-Feb-22 10:21 225 2 gusting 3 12.2
2017-Feb-22 10:06 217 0 gusting 3 11.7
2017-Feb-22 09:51 270 2 gusting 6 11.1
2017-Feb-22 09:35 244 1 gusting 4 10.6
2017-Feb-22 09:20 181 0 gusting 2 10.6
2017-Feb-22 09:05 107 10.0
2017-Feb-22 08:50 179 1 gusting 3 9.4
2017-Feb-22 08:35 173 1 gusting 4 9.4
2017-Feb-22 08:20 123 8.9
2017-Feb-22 08:05 129 1 gusting 2 8.3
2017-Feb-22 07:50 171 8.3
2017-Feb-22 07:35 182 4 gusting 10 8.3
2017-Feb-22 07:20 152 2 gusting 6 7.8
2017-Feb-22 07:05 147 1 gusting 8 7.2
2017-Feb-22 06:50 157 2 gusting 6 7.2
2017-Feb-22 06:35 171 3 gusting 5 7.8
2017-Feb-22 06:20 180 7.8
2017-Feb-22 06:05 180 2 gusting 5 7.8
2017-Feb-22 05:50 180 2 gusting 6 7.8
2017-Feb-22 05:35 181 2 gusting 4 7.8
2017-Feb-22 05:20 180 7.8
2017-Feb-22 05:05 180 7.8
2017-Feb-22 04:50 180 7.8
2017-Feb-22 04:35 180 8.3
2017-Feb-22 04:20 180 7.8
2017-Feb-22 04:05 180 1 gusting 3 7.8
2017-Feb-22 03:50 180 1 gusting 2 8.3
2017-Feb-22 03:35 180 8.3
2017-Feb-22 03:20 180 1 gusting 2 8.3
2017-Feb-22 03:05 180 1 gusting 4 8.3
2017-Feb-22 02:50 180 0 gusting 4 8.3
2017-Feb-22 02:35 188 1 gusting 7 8.3
2017-Feb-22 02:19 178 4 gusting 6 8.3
2017-Feb-22 02:04 171 8.3
2017-Feb-22 01:49 171 2 gusting 4 8.3
2017-Feb-22 01:34 171 4 gusting 5 8.9
2017-Feb-22 01:19 171 1 gusting 4 8.9
2017-Feb-22 01:04 176 3 gusting 6 8.9
2017-Feb-22 00:49 197 2 gusting 4 8.9
2017-Feb-22 00:34 211 5 gusting 6 8.3
2017-Feb-22 00:19 213 8.9
2017-Feb-22 00:04 213 9.4
2017-Feb-21 23:49 213 9.4
2017-Feb-21 23:34 213 9.4
2017-Feb-21 23:19 213 9.4
2017-Feb-21 23:04 213 10.0
2017-Feb-21 22:49 213 10.0
2017-Feb-21 22:34 213 10.0
2017-Feb-21 22:19 213 10.6
2017-Feb-21 22:04 213 10.6
2017-Feb-21 21:49 229 3 gusting 5 10.6
2017-Feb-21 21:34 207 3 gusting 6 11.1
2017-Feb-21 21:19 240 1 gusting 4 11.7
2017-Feb-21 21:04 009 12.2
2017-Feb-21 20:49 009 0 gusting 4 12.8
2017-Feb-21 20:34 015 2 gusting 5 12.8
2017-Feb-21 20:19 010 3 gusting 6 12.2
2017-Feb-21 20:04 109 0 gusting 5 12.2
2017-Feb-21 19:49 121 12.2
2017-Feb-21 19:34 121 12.8
2017-Feb-21 19:19 121 13.3
2017-Feb-21 19:04 125 13.3
2017-Feb-21 18:49 139 13.9
2017-Feb-21 18:34 140 2 gusting 6 14.4
2017-Feb-21 18:19 113 2 gusting 5 15.0
2017-Feb-21 17:49 253 2 gusting 8 15.6
2017-Feb-21 17:34 219 0 gusting 1 16.1
2017-Feb-21 17:19 219 16.7
2017-Feb-21 17:04 219 16.7
2017-Feb-21 16:49 219 1 gusting 6 17.2
2017-Feb-21 16:34 220 2 gusting 6 16.7
2017-Feb-21 16:19 240 4 gusting 6 17.2
2017-Feb-21 16:04 221 2 gusting 9 17.2
2017-Feb-21 15:49 225 3 gusting 7 17.2
2017-Feb-21 15:34 236 5 gusting 9 17.2
2017-Feb-21 15:19 278 17.2
2017-Feb-21 15:04 277 16.7
2017-Feb-21 14:49 327 16.7
2017-Feb-21 14:34 327 0 gusting 5 16.7
2017-Feb-21 14:19 329 0 gusting 4 16.7
2017-Feb-21 14:04 325 1 gusting 4 16.7
2017-Feb-21 13:49 323 0 gusting 5 16.1
2017-Feb-21 13:33 287 1 gusting 6 15.6
2017-Feb-21 13:18 261 1 gusting 6 15.0
2017-Feb-21 13:03 201 2 gusting 6 14.4
2017-Feb-21 12:48 193 0 gusting 6 13.9
2017-Feb-21 12:33 140 13.3
2017-Feb-21 12:18 087 12.2
2017-Feb-21 12:03 084 11.7
2017-Feb-21 11:48 085 3 gusting 6 11.1
2017-Feb-21 11:33 072 1 gusting 6 10.6
2017-Feb-21 11:18 158 10.0
2017-Feb-21 11:03 148 9.4
2017-Feb-21 10:48 148 8.9
2017-Feb-21 10:33 190 1 gusting 4 8.9
2017-Feb-21 10:18 191 8.3
2017-Feb-21 10:03 191 8.3
2017-Feb-21 09:48 190 1 gusting 3 8.3
2017-Feb-21 09:33 190 0 gusting 3 8.3
2017-Feb-21 09:18 190 0 gusting 2 7.8
2017-Feb-21 09:03 190 1 gusting 5 7.2
2017-Feb-21 08:47 190 2 gusting 5 7.2
2017-Feb-21 08:32 192 3 gusting 5 6.7
2017-Feb-21 08:17 191 1 gusting 4 6.7
2017-Feb-21 08:02 192 1 gusting 6 6.1
2017-Feb-21 07:47 190 2 gusting 4 6.1
2017-Feb-21 07:32 190 1 gusting 6 5.6
2017-Feb-21 07:17 173 4 gusting 6 5.6
2017-Feb-21 07:02 173 5.6
2017-Feb-21 06:47 173 1 gusting 3 6.1
2017-Feb-21 06:32 173 2 gusting 4 6.1
2017-Feb-21 06:17 173 2 gusting 4 6.1
2017-Feb-21 06:02 172 3 gusting 5 6.1
2017-Feb-21 05:47 171 4 gusting 6 6.1
2017-Feb-21 05:32 167 4 gusting 7 6.1
2017-Feb-21 05:17 175 4 gusting 6 6.7
2017-Feb-21 05:02 174 5 gusting 7 6.7
2017-Feb-21 04:47 187 3 gusting 6 6.1
2017-Feb-21 04:32 176 4 gusting 6 6.7
2017-Feb-21 04:17 174 6.7
2017-Feb-21 04:02 174 6.7
2017-Feb-21 03:47 174 0 gusting 3 7.2
2017-Feb-21 03:32 175 1 gusting 6 7.2
2017-Feb-21 03:17 186 3 gusting 6 7.2
2017-Feb-21 03:02 178 4 gusting 7 7.2
2017-Feb-21 02:47 175 2 gusting 5 7.2
2017-Feb-21 02:32 175 4 gusting 7 7.2
2017-Feb-21 02:17 175 2 gusting 6 7.2
2017-Feb-21 02:02 175 2 gusting 5 7.2
2017-Feb-21 01:47 175 1 gusting 5 7.2
2017-Feb-21 01:31 176 7.2
2017-Feb-21 01:16 176 1 gusting 5 7.2
2017-Feb-21 01:01 177 2 gusting 4 7.2
2017-Feb-21 00:46 177 2 gusting 4 7.8
2017-Feb-21 00:31 178 3 gusting 7 7.8
2017-Feb-21 00:16 181 3 gusting 6 7.8
2017-Feb-21 00:01 179 3 gusting 6 7.8
2017-Feb-20 23:46 176 2 gusting 3 7.8
2017-Feb-20 23:31 176 2 gusting 4 7.8
2017-Feb-20 23:16 176 1 gusting 5 8.3
2017-Feb-20 23:01 178 0 gusting 3 8.3
2017-Feb-20 22:47 178 0 gusting 4 8.3
2017-Feb-20 22:31 178 8.3
2017-Feb-20 22:16 178 1 gusting 3 8.9
2017-Feb-20 22:01 178 0 gusting 3 8.9